Corning, Kansas
Current Conditions -  °F | °C
As of 8:15 PM on Friday 28 Nov 2014 (Local Time) from KMYZ Reporting Station
Clear Clear  
Wind Chill: 54°   Ceiling: Unl
Heat Index: 54°   Visibility: 10mi
Dew Point: 36°   Wind: 15mph
Humidity: 51%   Direction: 200°SSW
Pressure: 29.69"   Gusts: 21mph
Location:  39.66°N, 96.03°W
Report Text: KMYZ 290215Z AUTO 20013G18KT 10SM CLR 12/02 A2969 RMK AO2
Loading
Personal Weather Stations






























Interactive Weather Map New forecast layout! Learn more

10-Day Weather Forecast

Advertisements
Track Severe Weather on mobile